sensor_id;sensor_type;location;lat;lon;timestamp;pressure;altitude;pressure_sealevel;temperature;humidity
35647;BME280;28680;45.642;13.756;2023-05-10T00:00:12;100974.59;;;18.15;100.00
35647;BME280;28680;45.642;13.756;2023-05-10T00:02:38;100961.47;;;17.97;100.00
35647;BME280;28680;45.642;13.756;2023-05-10T00:05:05;100964.81;;;17.56;100.00
35647;BME280;28680;45.642;13.756;2023-05-10T00:07:31;100964.50;;;17.67;100.00
35647;BME280;28680;45.642;13.756;2023-05-10T00:09:57;100955.63;;;17.93;100.00
35647;BME280;28680;45.642;13.756;2023-05-10T00:12:23;100956.22;;;17.70;100.00
35647;BME280;28680;45.642;13.756;2023-05-10T00:14:48;100950.38;;;17.59;100.00
35647;BME280;28680;45.642;13.756;2023-05-10T00:17:14;100947.72;;;17.50;100.00
35647;BME280;28680;45.642;13.756;2023-05-10T00:19:40;100940.72;;;17.49;100.00
35647;BME280;28680;45.642;13.756;2023-05-10T00:22:06;100927.31;;;17.59;100.00
35647;BME280;28680;45.642;13.756;2023-05-10T00:24:32;100929.97;;;17.59;100.00
35647;BME280;28680;45.642;13.756;2023-05-10T00:26:58;100937.78;;;17.69;100.00
35647;BME280;28680;45.642;13.756;2023-05-10T00:29:23;100926.50;;;17.67;100.00
35647;BME280;28680;45.642;13.756;2023-05-10T00:31:49;100923.94;;;17.91;100.00
35647;BME280;28680;45.642;13.756;2023-05-10T00:34:15;100915.38;;;17.55;100.00
35647;BME280;28680;45.642;13.756;2023-05-10T00:36:41;100925.66;;;17.58;100.00
35647;BME280;28680;45.642;13.756;2023-05-10T00:39:07;100913.38;;;17.57;100.00
35647;BME280;28680;45.642;13.756;2023-05-10T00:41:33;100911.28;;;17.77;100.00
35647;BME280;28680;45.642;13.756;2023-05-10T00:43:59;100906.59;;;17.71;100.00
35647;BME280;28680;45.642;13.756;2023-05-10T00:46:26;100901.69;;;17.84;100.00
35647;BME280;28680;45.642;13.756;2023-05-10T00:48:52;100900.97;;;17.74;100.00
35647;BME280;28680;45.642;13.756;2023-05-10T00:51:18;100900.97;;;17.74;100.00
35647;BME280;28680;45.642;13.756;2023-05-10T00:53:46;100900.53;;;18.03;100.00
35647;BME280;28680;45.642;13.756;2023-05-10T00:56:12;100899.53;;;17.88;100.00
35647;BME280;28680;45.642;13.756;2023-05-10T00:58:41;100895.91;;;17.89;100.00
35647;BME280;28680;45.642;13.756;2023-05-10T01:01:08;100890.72;;;17.79;100.00
35647;BME280;28680;45.642;13.756;2023-05-10T01:03:35;100895.88;;;17.81;100.00
35647;BME280;28680;45.642;13.756;2023-05-10T01:06:01;100893.41;;;17.87;100.00
35647;BME280;28680;45.642;13.756;2023-05-10T01:08:29;100887.94;;;17.89;100.00
35647;BME280;28680;45.642;13.756;2023-05-10T01:10:55;100888.22;;;17.78;100.00
35647;BME280;28680;45.642;13.756;2023-05-10T01:13:33;100884.06;;;17.75;100.00
35647;BME280;28680;45.642;13.756;2023-05-10T01:16:01;100891.47;;;17.55;100.00
35647;BME280;28680;45.642;13.756;2023-05-10T01:18:30;100880.56;;;17.66;100.00
35647;BME280;28680;45.642;13.756;2023-05-10T01:32:45;100883.75;;;17.27;100.00
35647;BME280;28680;45.642;13.756;2023-05-10T01:37:59;100879.09;;;17.21;100.00
35647;BME280;28680;45.642;13.756;2023-05-10T01:43:11;100873.91;;;17.03;100.00
35647;BME280;28680;45.642;13.756;2023-05-10T01:45:52;100874.34;;;16.90;100.00
35647;BME280;28680;45.642;13.756;2023-05-10T01:48:20;100881.53;;;16.80;100.00
35647;BME280;28680;45.642;13.756;2023-05-10T01:50:48;100870.34;;;16.86;100.00
35647;BME280;28680;45.642;13.756;2023-05-10T01:53:18;100871.09;;;16.79;100.00
35647;BME280;28680;45.642;13.756;2023-05-10T01:55:52;100872.00;;;16.87;100.00
35647;BME280;28680;45.642;13.756;2023-05-10T01:58:32;100873.38;;;16.73;100.00
35647;BME280;28680;45.642;13.756;2023-05-10T02:01:03;100872.72;;;16.71;100.00
35647;BME280;28680;45.642;13.756;2023-05-10T02:03:31;100867.41;;;16.71;100.00
35647;BME280;28680;45.642;13.756;2023-05-10T02:05:58;100865.06;;;16.68;100.00
35647;BME280;28680;45.642;13.756;2023-05-10T02:08:25;100862.81;;;16.82;100.00
35647;BME280;28680;45.642;13.756;2023-05-10T02:10:55;100867.09;;;16.74;100.00
35647;BME280;28680;45.642;13.756;2023-05-10T02:13:24;100860.81;;;16.75;100.00
35647;BME280;28680;45.642;13.756;2023-05-10T02:15:51;100858.97;;;16.76;100.00
35647;BME280;28680;45.642;13.756;2023-05-10T02:18:18;100856.34;;;16.76;100.00
35647;BME280;28680;45.642;13.756;2023-05-10T02:20:46;100863.06;;;16.88;100.00
35647;BME280;28680;45.642;13.756;2023-05-10T02:23:14;100854.69;;;16.75;100.00
35647;BME280;28680;45.642;13.756;2023-05-10T02:25:42;100861.78;;;16.74;100.00
35647;BME280;28680;45.642;13.756;2023-05-10T02:28:08;100849.56;;;16.82;100.00
35647;BME280;28680;45.642;13.756;2023-05-10T02:30:36;100850.56;;;16.81;100.00
35647;BME280;28680;45.642;13.756;2023-05-10T02:33:04;100846.38;;;16.70;100.00
35647;BME280;28680;45.642;13.756;2023-05-10T02:35:31;100840.19;;;16.87;100.00
35647;BME280;28680;45.642;13.756;2023-05-10T02:37:59;100836.81;;;16.77;100.00
35647;BME280;28680;45.642;13.756;2023-05-10T02:40:27;100840.66;;;16.83;100.00
35647;BME280;28680;45.642;13.756;2023-05-10T02:42:56;100828.13;;;17.01;100.00
35647;BME280;28680;45.642;13.756;2023-05-10T02:45:27;100826.19;;;17.11;100.00
35647;BME280;28680;45.642;13.756;2023-05-10T02:47:55;100830.16;;;17.07;100.00
35647;BME280;28680;45.642;13.756;2023-05-10T02:50:22;100832.44;;;16.94;100.00
35647;BME280;28680;45.642;13.756;2023-05-10T02:52:51;100826.25;;;16.85;100.00
35647;BME280;28680;45.642;13.756;2023-05-10T02:55:23;100830.50;;;16.78;100.00
35647;BME280;28680;45.642;13.756;2023-05-10T02:57:56;100824.38;;;16.77;100.00
35647;BME280;28680;45.642;13.756;2023-05-10T03:00:25;100830.63;;;16.68;100.00
35647;BME280;28680;45.642;13.756;2023-05-10T03:02:51;100827.00;;;16.69;100.00
35647;BME280;28680;45.642;13.756;2023-05-10T03:05:18;100818.88;;;16.71;100.00
35647;BME280;28680;45.642;13.756;2023-05-10T03:07:44;100827.19;;;16.76;100.00
35647;BME280;28680;45.642;13.756;2023-05-10T03:10:11;100820.81;;;16.95;100.00
35647;BME280;28680;45.642;13.756;2023-05-10T03:13:13;100816.34;;;16.95;100.00
35647;BME280;28680;45.642;13.756;2023-05-10T03:19:01;100817.88;;;16.72;100.00
35647;BME280;28680;45.642;13.756;2023-05-10T03:21:31;100820.66;;;16.88;100.00
35647;BME280;28680;45.642;13.756;2023-05-10T03:24:07;100821.69;;;16.69;100.00
35647;BME280;28680;45.642;13.756;2023-05-10T03:26:34;100815.09;;;16.73;100.00
35647;BME280;28680;45.642;13.756;2023-05-10T03:29:01;100820.03;;;16.68;100.00
35647;BME280;28680;45.642;13.756;2023-05-10T03:31:27;100818.91;;;16.79;100.00
35647;BME280;28680;45.642;13.756;2023-05-10T03:33:53;100825.09;;;16.88;100.00
35647;BME280;28680;45.642;13.756;2023-05-10T03:36:19;100821.31;;;16.90;100.00
35647;BME280;28680;45.642;13.756;2023-05-10T03:38:45;100812.03;;;16.86;100.00
35647;BME280;28680;45.642;13.756;2023-05-10T03:41:11;100812.78;;;16.79;100.00
35647;BME280;28680;45.642;13.756;2023-05-10T03:43:37;100819.88;;;16.70;100.00
35647;BME280;28680;45.642;13.756;2023-05-10T03:46:04;100820.16;;;16.67;100.00
35647;BME280;28680;45.642;13.756;2023-05-10T03:48:31;100821.88;;;16.76;100.00
35647;BME280;28680;45.642;13.756;2023-05-10T03:50:58;100823.31;;;16.97;100.00
35647;BME280;28680;45.642;13.756;2023-05-10T03:53:24;100819.91;;;16.78;100.00
35647;BME280;28680;45.642;13.756;2023-05-10T03:55:50;100811.53;;;16.91;100.00
35647;BME280;28680;45.642;13.756;2023-05-10T03:58:15;100822.50;;;16.96;100.00
35647;BME280;28680;45.642;13.756;2023-05-10T04:00:41;100823.03;;;17.00;100.00
35647;BME280;28680;45.642;13.756;2023-05-10T04:03:13;100820.81;;;16.87;100.00
35647;BME280;28680;45.642;13.756;2023-05-10T04:05:39;100810.38;;;16.93;100.00
35647;BME280;28680;45.642;13.756;2023-05-10T04:08:05;100816.28;;;16.79;100.00
35647;BME280;28680;45.642;13.756;2023-05-10T04:10:31;100813.88;;;16.94;100.00
35647;BME280;28680;45.642;13.756;2023-05-10T04:12:58;100816.03;;;16.90;100.00
35647;BME280;28680;45.642;13.756;2023-05-10T04:15:24;100816.06;;;16.72;100.00
35647;BME280;28680;45.642;13.756;2023-05-10T04:17:50;100812.78;;;16.79;100.00
35647;BME280;28680;45.642;13.756;2023-05-10T04:20:16;100818.41;;;16.75;100.00
35647;BME280;28680;45.642;13.756;2023-05-10T04:22:42;100813.47;;;16.81;100.00
35647;BME280;28680;45.642;13.756;2023-05-10T04:25:08;100818.38;;;16.67;100.00
35647;BME280;28680;45.642;13.756;2023-05-10T04:27:34;100824.28;;;16.61;100.00
35647;BME280;28680;45.642;13.756;2023-05-10T04:30:00;100822.81;;;16.67;100.00
35647;BME280;28680;45.642;13.756;2023-05-10T04:32:26;100831.44;;;16.95;100.00
35647;BME280;28680;45.642;13.756;2023-05-10T04:34:52;100830.59;;;16.86;100.00
35647;BME280;28680;45.642;13.756;2023-05-10T04:37:18;100829.59;;;16.87;100.00
35647;BME280;28680;45.642;13.756;2023-05-10T04:39:45;100827.78;;;16.62;100.00
35647;BME280;28680;45.642;13.756;2023-05-10T04:42:11;100828.91;;;16.85;100.00
35647;BME280;28680;45.642;13.756;2023-05-10T04:44:37;100821.88;;;16.76;100.00
35647;BME280;28680;45.642;13.756;2023-05-10T04:47:03;100833.66;;;16.82;100.00
35647;BME280;28680;45.642;13.756;2023-05-10T04:49:29;100834.88;;;16.87;100.00
35647;BME280;28680;45.642;13.756;2023-05-10T04:51:56;100838.44;;;17.04;100.00
35647;BME280;28680;45.642;13.756;2023-05-10T04:54:21;100839.50;;;16.85;100.00
35647;BME280;28680;45.642;13.756;2023-05-10T04:56:47;100835.72;;;16.88;100.00
35647;BME280;28680;45.642;13.756;2023-05-10T04:59:14;100840.41;;;16.94;100.00
35647;BME280;28680;45.642;13.756;2023-05-10T05:01:40;100842.84;;;16.95;100.00
35647;BME280;28680;45.642;13.756;2023-05-10T05:04:06;100842.78;;;17.13;100.00
35647;BME280;28680;45.642;13.756;2023-05-10T05:06:32;100842.25;;;17.10;100.00
35647;BME280;28680;45.642;13.756;2023-05-10T05:08:58;100843.72;;;17.04;100.00
35647;BME280;28680;45.642;13.756;2023-05-10T05:11:24;100851.31;;;16.99;100.00
35647;BME280;28680;45.642;13.756;2023-05-10T05:13:51;100852.31;;;16.64;100.00
35647;BME280;28680;45.642;13.756;2023-05-10T05:16:17;100852.38;;;16.54;100.00
35647;BME280;28680;45.642;13.756;2023-05-10T05:18:43;100851.56;;;16.80;100.00
35647;BME280;28680;45.642;13.756;2023-05-10T05:21:22;100847.59;;;17.18;100.00
35647;BME280;28680;45.642;13.756;2023-05-10T05:23:47;100853.88;;;17.09;100.00
35647;BME280;28680;45.642;13.756;2023-05-10T05:26:13;100856.28;;;16.94;100.00
35647;BME280;28680;45.642;13.756;2023-05-10T05:28:40;100855.53;;;17.10;100.00
35647;BME280;28680;45.642;13.756;2023-05-10T05:31:07;100853.69;;;17.02;100.00
35647;BME280;28680;45.642;13.756;2023-05-10T05:33:33;100849.78;;;17.31;100.00
35647;BME280;28680;45.642;13.756;2023-05-10T05:36:04;100859.94;;;17.36;100.00
35647;BME280;28680;45.642;13.756;2023-05-10T05:38:31;100845.81;;;17.35;100.00
35647;BME280;28680;45.642;13.756;2023-05-10T05:40:57;100852.31;;;17.41;100.00
35647;BME280;28680;45.642;13.756;2023-05-10T05:43:23;100859.78;;;17.45;100.00
35647;BME280;28680;45.642;13.756;2023-05-10T05:45:49;100852.34;;;17.65;100.00
35647;BME280;28680;45.642;13.756;2023-05-10T05:48:17;100853.88;;;17.68;100.00
35647;BME280;28680;45.642;13.756;2023-05-10T05:50:43;100852.03;;;17.60;100.00
35647;BME280;28680;45.642;13.756;2023-05-10T05:53:09;100858.81;;;17.54;100.00
35647;BME280;28680;45.642;13.756;2023-05-10T05:55:35;100851.38;;;17.74;100.00
35647;BME280;28680;45.642;13.756;2023-05-10T05:58:01;100857.72;;;18.06;100.00
35647;BME280;28680;45.642;13.756;2023-05-10T06:00:27;100854.88;;;18.33;100.00
35647;BME280;28680;45.642;13.756;2023-05-10T06:02:53;100857.72;;;18.23;100.00
35647;BME280;28680;45.642;13.756;2023-05-10T06:05:19;100860.31;;;18.56;100.00
35647;BME280;28680;45.642;13.756;2023-05-10T06:07:45;100851.91;;;18.36;100.00
35647;BME280;28680;45.642;13.756;2023-05-10T06:10:12;100860.22;;;18.08;100.00
35647;BME280;28680;45.642;13.756;2023-05-10T06:12:38;100855.91;;;18.15;100.00
35647;BME280;28680;45.642;13.756;2023-05-10T06:15:04;100856.22;;;18.37;100.00
35647;BME280;28680;45.642;13.756;2023-05-10T06:17:30;100848.22;;;18.37;100.00
35647;BME280;28680;45.642;13.756;2023-05-10T06:19:56;100855.53;;;18.35;100.00
35647;BME280;28680;45.642;13.756;2023-05-10T06:22:22;100866.16;;;18.51;100.00
35647;BME280;28680;45.642;13.756;2023-05-10T06:24:49;100856.81;;;18.72;100.00
35647;BME280;28680;45.642;13.756;2023-05-10T06:27:15;100867.78;;;18.85;100.00
35647;BME280;28680;45.642;13.756;2023-05-10T06:29:41;100862.16;;;18.55;100.00
35647;BME280;28680;45.642;13.756;2023-05-10T06:32:07;100867.50;;;18.47;100.00
35647;BME280;28680;45.642;13.756;2023-05-10T06:34:33;100857.63;;;18.72;100.00
35647;BME280;28680;45.642;13.756;2023-05-10T06:36:58;100862.97;;;18.56;100.00
35647;BME280;28680;45.642;13.756;2023-05-10T06:39:24;100874.25;;;18.74;100.00
35647;BME280;28680;45.642;13.756;2023-05-10T06:41:50;100873.13;;;18.52;100.00
35647;BME280;28680;45.642;13.756;2023-05-10T06:44:16;100868.00;;;18.34;100.00
35647;BME280;28680;45.642;13.756;2023-05-10T06:46:42;100864.84;;;18.30;100.00
35647;BME280;28680;45.642;13.756;2023-05-10T06:49:08;100878.63;;;18.26;100.00
35647;BME280;28680;45.642;13.756;2023-05-10T06:51:34;100870.66;;;18.18;100.00
35647;BME280;28680;45.642;13.756;2023-05-10T06:54:00;100870.66;;;18.01;100.00
35647;BME280;28680;45.642;13.756;2023-05-10T06:56:26;100875.16;;;18.34;100.00
35647;BME280;28680;45.642;13.756;2023-05-10T06:58:52;100869.31;;;18.46;100.00
35647;BME280;28680;45.642;13.756;2023-05-10T07:01:18;100867.50;;;18.39;100.00
35647;BME280;28680;45.642;13.756;2023-05-10T07:03:44;100869.97;;;18.48;100.00
35647;BME280;28680;45.642;13.756;2023-05-10T07:06:10;100869.47;;;18.53;100.00
35647;BME280;28680;45.642;13.756;2023-05-10T07:08:36;100865.31;;;18.50;100.00
35647;BME280;28680;45.642;13.756;2023-05-10T07:11:06;100868.00;;;18.34;100.00
35647;BME280;28680;45.642;13.756;2023-05-10T07:13:36;100874.16;;;18.35;100.00
35647;BME280;28680;45.642;13.756;2023-05-10T07:16:02;100875.47;;;18.47;100.00
35647;BME280;28680;45.642;13.756;2023-05-10T07:18:28;100872.50;;;18.34;100.00
35647;BME280;28680;45.642;13.756;2023-05-10T07:20:54;100880.78;;;18.30;100.00
35647;BME280;28680;45.642;13.756;2023-05-10T07:23:20;100877.63;;;18.43;100.00
35647;BME280;28680;45.642;13.756;2023-05-10T07:25:48;100878.63;;;18.42;100.00
35647;BME280;28680;45.642;13.756;2023-05-10T07:28:15;100883.59;;;18.37;100.00
35647;BME280;28680;45.642;13.756;2023-05-10T07:30:42;100881.13;;;18.27;100.00
35647;BME280;28680;45.642;13.756;2023-05-10T07:33:09;100877.97;;;18.40;100.00
35647;BME280;28680;45.642;13.756;2023-05-10T07:35:36;100873.66;;;18.31;100.00
35647;BME280;28680;45.642;13.756;2023-05-10T07:38:02;100873.66;;;18.31;100.00
35647;BME280;28680;45.642;13.756;2023-05-10T07:40:28;100876.81;;;18.26;100.00
35647;BME280;28680;45.642;13.756;2023-05-10T07:42:54;100884.44;;;18.21;100.00
35647;BME280;28680;45.642;13.756;2023-05-10T07:45:20;100880.13;;;18.20;100.00
35647;BME280;28680;45.642;13.756;2023-05-10T07:47:46;100873.31;;;18.34;100.00
35647;BME280;28680;45.642;13.756;2023-05-10T07:50:12;100864.38;;;18.27;100.00
35647;BME280;28680;45.642;13.756;2023-05-10T07:52:38;100875.66;;;18.29;100.00
35647;BME280;28680;45.642;13.756;2023-05-10T07:55:05;100869.84;;;18.25;100.00
35647;BME280;28680;45.642;13.756;2023-05-10T07:57:35;100868.19;;;18.33;100.00
35647;BME280;28680;45.642;13.756;2023-05-10T08:00:02;100874.66;;;18.14;100.00
35647;BME280;28680;45.642;13.756;2023-05-10T08:02:28;100875.84;;;18.11;100.00
35647;BME280;28680;45.642;13.756;2023-05-10T08:04:54;100880.97;;;18.21;100.00
35647;BME280;28680;45.642;13.756;2023-05-10T08:07:21;100877.66;;;18.19;100.00
35647;BME280;28680;45.642;13.756;2023-05-10T08:09:47;100877.66;;;18.19;100.00
35647;BME280;28680;45.642;13.756;2023-05-10T08:12:13;100881.78;;;18.21;100.00
35647;BME280;28680;45.642;13.756;2023-05-10T08:14:39;100877.66;;;18.27;100.00
35647;BME280;28680;45.642;13.756;2023-05-10T08:17:04;100875.63;;;18.45;100.00
35647;BME280;28680;45.642;13.756;2023-05-10T08:19:30;100887.25;;;18.44;100.00
35647;BME280;28680;45.642;13.756;2023-05-10T08:21:56;100886.94;;;18.31;100.00
35647;BME280;28680;45.642;13.756;2023-05-10T08:24:22;100879.97;;;18.38;100.00
35647;BME280;28680;45.642;13.756;2023-05-10T08:26:48;100897.91;;;18.28;100.00
35647;BME280;28680;45.642;13.756;2023-05-10T08:29:15;100896.56;;;18.16;100.00
35647;BME280;28680;45.642;13.756;2023-05-10T08:31:41;100902.38;;;17.95;100.00
35647;BME280;28680;45.642;13.756;2023-05-10T08:34:07;100901.53;;;17.86;100.00
35647;BME280;28680;45.642;13.756;2023-05-10T08:36:33;100901.22;;;18.05;100.00
35647;BME280;28680;45.642;13.756;2023-05-10T08:38:59;100900.06;;;18.16;100.00
35647;BME280;28680;45.642;13.756;2023-05-10T08:41:25;100903.88;;;18.14;100.00
35647;BME280;28680;45.642;13.756;2023-05-10T08:43:53;100905.19;;;18.26;100.00
35647;BME280;28680;45.642;13.756;2023-05-10T08:46:21;100905.22;;;18.09;100.00
35647;BME280;28680;45.642;13.756;2023-05-10T08:48:49;100909.66;;;18.09;100.00
35647;BME280;28680;45.642;13.756;2023-05-10T08:51:24;100911.09;;;17.79;100.00
35647;BME280;28680;45.642;13.756;2023-05-10T08:53:52;100911.84;;;18.05;100.00
35647;BME280;28680;45.642;13.756;2023-05-10T08:56:18;100915.66;;;17.95;100.00
35647;BME280;28680;45.642;13.756;2023-05-10T08:58:47;100920.47;;;17.99;100.00
35647;BME280;28680;45.642;13.756;2023-05-10T09:01:16;100912.69;;;17.98;100.00
35647;BME280;28680;45.642;13.756;2023-05-10T09:03:44;100924.78;;;18.08;100.00
35647;BME280;28680;45.642;13.756;2023-05-10T09:06:12;100921.47;;;18.15;100.00
35647;BME280;28680;45.642;13.756;2023-05-10T09:08:40;100930.13;;;18.17;100.00
35647;BME280;28680;45.642;13.756;2023-05-10T09:11:08;100930.44;;;18.14;100.00
35647;BME280;28680;45.642;13.756;2023-05-10T09:13:36;100932.25;;;18.05;100.00
35647;BME280;28680;45.642;13.756;2023-05-10T09:16:03;100929.78;;;18.20;100.00
35647;BME280;28680;45.642;13.756;2023-05-10T09:18:29;100924.81;;;18.25;100.00
35647;BME280;28680;45.642;13.756;2023-05-10T09:20:55;100923.63;;;18.19;100.00
35647;BME280;28680;45.642;13.756;2023-05-10T09:23:21;100926.13;;;18.29;100.00
35647;BME280;28680;45.642;13.756;2023-05-10T09:25:47;100928.13;;;18.19;100.00
35647;BME280;28680;45.642;13.756;2023-05-10T09:28:12;100925.94;;;18.14;100.00
35647;BME280;28680;45.642;13.756;2023-05-10T09:30:38;100927.94;;;18.20;100.00
35647;BME280;28680;45.642;13.756;2023-05-10T09:33:05;100920.81;;;18.21;100.00
35647;BME280;28680;45.642;13.756;2023-05-10T09:35:32;100928.78;;;17.96;100.00
35647;BME280;28680;45.642;13.756;2023-05-10T09:38:04;100920.41;;;17.83;100.00
35647;BME280;28680;45.642;13.756;2023-05-10T09:40:30;100915.66;;;18.03;100.00
35647;BME280;28680;45.642;13.756;2023-05-10T09:42:59;100911.84;;;18.05;100.00
35647;BME280;28680;45.642;13.756;2023-05-10T09:45:30;100914.25;;;17.74;100.00
35647;BME280;28680;45.642;13.756;2023-05-10T09:47:57;100911.16;;;17.95;100.00
35647;BME280;28680;45.642;13.756;2023-05-10T09:50:24;100917.97;;;17.89;100.00
35647;BME280;28680;45.642;13.756;2023-05-10T09:52:55;100919.88;;;17.71;100.00
35647;BME280;28680;45.642;13.756;2023-05-10T09:55:44;100920.22;;;17.76;100.00
35647;BME280;28680;45.642;13.756;2023-05-10T09:58:15;100917.97;;;17.39;100.00
35647;BME280;28680;45.642;13.756;2023-05-10T10:00:43;100912.72;;;17.63;100.00
35647;BME280;28680;45.642;13.756;2023-05-10T10:03:20;100914.88;;;17.60;100.00
35647;BME280;28680;45.642;13.756;2023-05-10T10:05:47;100915.88;;;17.59;100.00
35647;BME280;28680;45.642;13.756;2023-05-10T10:08:14;100919.91;;;17.79;100.00
35647;BME280;28680;45.642;13.756;2023-05-10T10:10:41;100912.56;;;17.73;100.00
35647;BME280;28680;45.642;13.756;2023-05-10T10:13:09;100910.25;;;17.62;100.00
35647;BME280;28680;45.642;13.756;2023-05-10T10:15:36;100912.25;;;17.68;100.00
35647;BME280;28680;45.642;13.756;2023-05-10T10:18:02;100904.50;;;17.83;100.00
35647;BME280;28680;45.642;13.756;2023-05-10T10:20:29;100906.13;;;17.84;100.00
35647;BME280;28680;45.642;13.756;2023-05-10T10:22:55;100909.91;;;17.65;100.00
35647;BME280;28680;45.642;13.756;2023-05-10T10:25:22;100905.03;;;17.86;100.00
35647;BME280;28680;45.642;13.756;2023-05-10T10:35:30;100909.09;;;17.72;100.00
35647;BME280;28680;45.642;13.756;2023-05-10T10:37:56;100911.38;;;17.51;100.00
35647;BME280;28680;45.642;13.756;2023-05-10T10:40:32;100923.47;;;17.45;100.00
35647;BME280;28680;45.642;13.756;2023-05-10T10:43:26;100924.13;;;17.39;100.00
35647;BME280;28680;45.642;13.756;2023-05-10T10:46:15;100920.28;;;17.33;100.00
35647;BME280;28680;45.642;13.756;2023-05-10T10:49:08;100916.16;;;17.39;100.00
35647;BME280;28680;45.642;13.756;2023-05-10T10:51:38;100920.28;;;17.33;100.00
35647;BME280;28680;45.642;13.756;2023-05-10T10:54:11;100912.72;;;17.63;100.00
35647;BME280;28680;45.642;13.756;2023-05-10T10:56:37;100909.25;;;17.71;100.00
35647;BME280;28680;45.642;13.756;2023-05-10T10:59:03;100910.50;;;17.85;100.00
35647;BME280;28680;45.642;13.756;2023-05-10T11:01:35;100904.19;;;18.02;100.00
35647;BME280;28680;45.642;13.756;2023-05-10T11:06:34;100900.88;;;18.33;100.00
35647;BME280;28680;45.642;13.756;2023-05-10T11:09:08;100893.91;;;18.24;100.00
35647;BME280;28680;45.642;13.756;2023-05-10T11:11:35;100886.25;;;18.37;100.00
35647;BME280;28680;45.642;13.756;2023-05-10T11:14:06;100890.25;;;18.33;100.00
35647;BME280;28680;45.642;13.756;2023-05-10T11:16:43;100882.75;;;18.45;100.00
35647;BME280;28680;45.642;13.756;2023-05-10T11:19:12;100882.63;;;18.38;100.00
35647;BME280;28680;45.642;13.756;2023-05-10T11:21:49;100883.44;;;18.39;100.00
35647;BME280;28680;45.642;13.756;2023-05-10T11:24:23;100879.31;;;18.28;100.00
35647;BME280;28680;45.642;13.756;2023-05-10T11:26:53;100874.47;;;18.31;100.00
35647;BME280;28680;45.642;13.756;2023-05-10T11:29:19;100872.00;;;18.30;100.00
35647;BME280;28680;45.642;13.756;2023-05-10T11:31:46;100883.47;;;18.22;100.00
35647;BME280;28680;45.642;13.756;2023-05-10T11:34:33;100874.66;;;18.30;100.00
35647;BME280;28680;45.642;13.756;2023-05-10T11:37:00;100877.81;;;18.34;100.00
35647;BME280;28680;45.642;13.756;2023-05-10T11:39:31;100873.00;;;18.29;100.00
35647;BME280;28680;45.642;13.756;2023-05-10T11:41:58;100877.81;;;18.25;100.00
35647;BME280;28680;45.642;13.756;2023-05-10T11:44:31;100861.69;;;18.43;100.00
35647;BME280;28680;45.642;13.756;2023-05-10T11:47:01;100858.50;;;18.48;100.00
35647;BME280;28680;45.642;13.756;2023-05-10T11:49:27;100860.31;;;18.56;100.00
35647;BME280;28680;45.642;13.756;2023-05-10T11:51:53;100855.53;;;18.51;100.00
35647;BME280;28680;45.642;13.756;2023-05-10T11:54:28;100852.03;;;18.59;100.00
35647;BME280;28680;45.642;13.756;2023-05-10T11:56:54;100849.00;;;18.62;100.00
35647;BME280;28680;45.642;13.756;2023-05-10T11:59:20;100854.34;;;18.54;100.00
35647;BME280;28680;45.642;13.756;2023-05-10T12:01:46;100848.53;;;18.58;100.00
35647;BME280;28680;45.642;13.756;2023-05-10T12:04:12;100845.53;;;18.61;100.00
35647;BME280;28680;45.642;13.756;2023-05-10T12:06:40;100847.41;;;18.53;100.00
35647;BME280;28680;45.642;13.756;2023-05-10T12:09:07;100848.06;;;18.55;100.00
35647;BME280;28680;45.642;13.756;2023-05-10T12:11:39;100832.88;;;18.63;100.00
35647;BME280;28680;45.642;13.756;2023-05-10T12:14:08;100847.38;;;18.61;100.00
35647;BME280;28680;45.642;13.756;2023-05-10T12:16:36;100841.22;;;18.52;100.00
35647;BME280;28680;45.642;13.756;2023-05-10T12:19:01;100842.38;;;18.66;100.00
35647;BME280;28680;45.642;13.756;2023-05-10T12:21:29;100844.22;;;18.57;100.00
35647;BME280;28680;45.642;13.756;2023-05-10T12:24:03;100840.81;;;18.80;100.00
35647;BME280;28680;45.642;13.756;2023-05-10T12:26:29;100835.38;;;18.81;100.00
35647;BME280;28680;45.642;13.756;2023-05-10T12:29:18;100843.47;;;18.88;100.00
35647;BME280;28680;45.642;13.756;2023-05-10T12:31:58;100829.53;;;18.86;100.00
35647;BME280;28680;45.642;13.756;2023-05-10T12:34:32;100830.59;;;19.08;100.00
35647;BME280;28680;45.642;13.756;2023-05-10T12:36:59;100819.53;;;18.96;100.00
35647;BME280;28680;45.642;13.756;2023-05-10T12:39:25;100830.53;;;18.85;100.00
35647;BME280;28680;45.642;13.756;2023-05-10T12:41:52;100820.19;;;18.90;100.00
35647;BME280;28680;45.642;13.756;2023-05-10T12:44:18;100829.69;;;18.76;100.00
35647;BME280;28680;45.642;13.756;2023-05-10T12:46:44;100822.34;;;18.95;100.00
35647;BME280;28680;45.642;13.756;2023-05-10T12:49:10;100818.56;;;18.81;100.00
35647;BME280;28680;45.642;13.756;2023-05-10T12:51:36;100822.72;;;18.83;100.00
35647;BME280;28680;45.642;13.756;2023-05-10T12:54:02;100826.75;;;18.63;100.00
35647;BME280;28680;45.642;13.756;2023-05-10T12:56:29;100812.09;;;18.75;100.00
35647;BME280;28680;45.642;13.756;2023-05-10T12:58:54;100815.56;;;18.84;100.00
35647;BME280;28680;45.642;13.756;2023-05-10T13:01:20;100822.31;;;19.03;100.00
35647;BME280;28680;45.642;13.756;2023-05-10T13:03:46;100819.88;;;18.93;100.00